Time;durP1;ratioP1;P1;durP2;ratioP2;P2;SDS_P1;SDS_P2;PMS_P1;PMS_P2;Temp;Humidity;BMP_temperature;BMP_pressure;BME280_temperature;BME280_humidity;BME280_pressure;Samples;Min_cycle;Max_cycle;Signal;HPM_P1;HPM_P2
2022/05/04 00:01:18;;;;;;;;;;;14.90;44.00;;;;;;2273025;56;20385;-74
2022/05/04 00:03:44;;;;;;;;;;;14.90;44.10;;;;;;2271301;55;20139;-73
2022/05/04 00:06:11;;;;;;;;;;;14.90;44.20;;;;;;2267831;56;20131;-73
2022/05/04 00:08:39;;;;;;;;;;;14.90;44.20;;;;;;2269760;55;20084;-73
2022/05/04 00:11:06;;;;;;;;;;;14.90;44.30;;;;;;2282283;55;20404;-74
2022/05/04 00:13:34;;;;;;;;;;;14.80;44.20;;;;;;2266636;55;20085;-74
2022/05/04 00:16:01;;;;;;;;;;;14.90;44.30;;;;;;2268797;56;20081;-74
2022/05/04 00:18:39;;;;;;;;;;;14.80;44.30;;;;;;2270525;56;20113;-73
2022/05/04 00:21:07;;;;;;;;;;;14.80;44.30;;;;;;2375589;55;20132;-73
2022/05/04 00:23:33;;;;;;;;;;;14.80;44.40;;;;;;2260783;55;20136;-74
2022/05/04 00:26:00;;;;;;;;;;;14.80;44.80;;;;;;2267381;56;20072;-74
2022/05/04 00:28:26;;;;;;;;;;;14.80;44.60;;;;;;2266704;56;20452;-73
2022/05/04 00:30:53;;;;;;;;;;;14.80;44.70;;;;;;2267895;56;21088;-73
2022/05/04 00:33:19;;;;;;;;;;;14.80;44.70;;;;;;2369046;55;20065;-74
2022/05/04 00:35:46;;;;;;;;;;;14.80;44.70;;;;;;2272035;56;20197;-74
2022/05/04 00:38:12;;;;;;;;;;;14.80;44.80;;;;;;2480433;54;20061;-73
2022/05/04 00:40:38;;;;;;;;;;;14.70;44.70;;;;;;2275827;55;20073;-73
2022/05/04 00:43:04;;;;;;;;;;;14.70;44.70;;;;;;2273004;55;20077;-73
2022/05/04 00:45:31;;;;;;;;;;;14.70;44.70;;;;;;2283530;55;20113;-73
2022/05/04 00:47:57;;;;;;;;;;;14.70;44.80;;;;;;2263952;55;20306;-72
2022/05/04 00:50:24;;;;;;;;;;;14.70;44.80;;;;;;2271245;56;20108;-73
2022/05/04 00:52:52;;;;;;;;;;;14.60;44.70;;;;;;2279218;56;20257;-72
2022/05/04 00:55:18;;;;;;;;;;;14.70;44.80;;;;;;2280004;55;20100;-73
2022/05/04 01:00:29;;;;;;;;;;;14.60;44.80;;;;;;2259422;56;20136;-76
2022/05/04 01:02:55;;;;;;;;;;;14.60;44.80;;;;;;2324076;55;20085;-73
2022/05/04 01:05:21;;;;;;;;;;;14.60;44.80;;;;;;2344491;54;20076;-73
2022/05/04 01:07:48;;;;;;;;;;;14.50;44.80;;;;;;2283848;56;20341;-73
2022/05/04 01:10:14;;;;;;;;;;;14.50;44.80;;;;;;2288237;55;20065;-73
2022/05/04 01:12:51;;;;;;;;;;;14.50;44.90;;;;;;2356920;54;20085;-73
2022/05/04 01:15:18;;;;;;;;;;;14.40;44.80;;;;;;2284147;55;20132;-73
2022/05/04 01:17:44;;;;;;;;;;;14.40;44.80;;;;;;2284332;56;20416;-76
2022/05/04 01:20:11;;;;;;;;;;;14.40;44.90;;;;;;2287476;55;20121;-76
2022/05/04 01:22:37;;;;;;;;;;;14.30;44.80;;;;;;2366427;54;20052;-76
2022/05/04 01:25:03;;;;;;;;;;;14.30;44.90;;;;;;2283277;56;20115;-76
2022/05/04 01:27:29;;;;;;;;;;;14.30;45.00;;;;;;2275755;55;20061;-76
2022/05/04 01:29:56;;;;;;;;;;;14.20;44.90;;;;;;2279755;56;20756;-76
2022/05/04 01:32:22;;;;;;;;;;;14.20;45.00;;;;;;2279569;56;20362;-73
2022/05/04 01:34:49;;;;;;;;;;;14.10;45.00;;;;;;2349744;55;20065;-73
2022/05/04 01:37:15;;;;;;;;;;;14.10;45.10;;;;;;2365615;55;20073;-73
2022/05/04 01:39:41;;;;;;;;;;;14.00;45.10;;;;;;2322791;55;20117;-73
2022/05/04 01:42:13;;;;;;;;;;;14.00;45.20;;;;;;2324031;55;20182;-73
2022/05/04 01:44:40;;;;;;;;;;;14.00;45.30;;;;;;2365248;54;20737;-73
2022/05/04 01:47:06;;;;;;;;;;;14.00;45.30;;;;;;2275446;55;20349;-73
2022/05/04 01:49:33;;;;;;;;;;;14.00;45.30;;;;;;2271142;55;20069;-74
2022/05/04 01:51:59;;;;;;;;;;;13.90;45.30;;;;;;2282149;55;20077;-73
2022/05/04 01:54:25;;;;;;;;;;;13.90;45.30;;;;;;2381273;55;20129;-76
2022/05/04 01:56:51;;;;;;;;;;;13.90;45.40;;;;;;2516107;54;20126;-76
2022/05/04 01:59:18;;;;;;;;;;;13.90;45.50;;;;;;2277216;55;20068;-76
2022/05/04 02:01:45;;;;;;;;;;;13.80;45.40;;;;;;2327925;55;20073;-74
2022/05/04 02:04:11;;;;;;;;;;;13.80;45.50;;;;;;2277596;55;20140;-73
2022/05/04 02:06:38;;;;;;;;;;;13.80;45.50;;;;;;2365493;54;20112;-74
2022/05/04 02:09:04;;;;;;;;;;;13.80;45.50;;;;;;2273249;55;20172;-73
2022/05/04 02:11:32;;;;;;;;;;;13.80;45.60;;;;;;2273057;55;20081;-72
2022/05/04 02:14:00;;;;;;;;;;;13.70;45.50;;;;;;2305912;55;20088;-73
2022/05/04 02:16:26;;;;;;;;;;;13.70;45.60;;;;;;2265981;55;20081;-73
2022/05/04 02:18:52;;;;;;;;;;;13.70;45.60;;;;;;2270126;55;20061;-73
2022/05/04 02:21:18;;;;;;;;;;;13.70;45.70;;;;;;2276791;55;20109;-75
2022/05/04 02:23:45;;;;;;;;;;;13.60;45.60;;;;;;2274835;55;20064;-76
2022/05/04 02:26:11;;;;;;;;;;;13.60;45.70;;;;;;2271490;55;20080;-76
2022/05/04 02:28:37;;;;;;;;;;;13.60;45.70;;;;;;2251664;55;20407;-77
2022/05/04 02:31:04;;;;;;;;;;;13.60;45.70;;;;;;2276252;55;20129;-76
2022/05/04 02:33:30;;;;;;;;;;;13.60;45.80;;;;;;2261202;55;20258;-76
2022/05/04 02:38:41;;;;;;;;;;;13.50;45.80;;;;;;2279480;55;20077;-76
2022/05/04 02:41:08;;;;;;;;;;;13.40;46.40;;;;;;2278133;56;20113;-76
2022/05/04 02:43:34;;;;;;;;;;;13.40;46.00;;;;;;2277614;56;20548;-75
2022/05/04 02:46:13;;;;;;;;;;;13.40;46.10;;;;;;2276558;56;20109;-76
2022/05/04 02:48:39;;;;;;;;;;;13.40;46.20;;;;;;2510682;55;20217;-76
2022/05/04 02:51:05;;;;;;;;;;;13.40;46.20;;;;;;2427420;55;21070;-76
2022/05/04 02:53:34;;;;;;;;;;;13.40;46.20;;;;;;2478993;55;20112;-76
2022/05/04 02:56:01;;;;;;;;;;;13.40;46.30;;;;;;2270960;55;20145;-76
2022/05/04 02:58:27;;;;;;;;;;;13.40;46.30;;;;;;2270655;56;20258;-75
2022/05/04 03:00:54;;;;;;;;;;;13.40;46.30;;;;;;2347409;55;20144;-76
2022/05/04 03:03:21;;;;;;;;;;;13.40;46.40;;;;;;2296955;55;20145;-77
2022/05/04 03:05:49;;;;;;;;;;;13.30;46.30;;;;;;2261138;55;20105;-75
2022/05/04 03:08:15;;;;;;;;;;;13.30;46.40;;;;;;2272199;55;20243;-76
2022/05/04 03:13:26;;;;;;;;;;;13.40;46.50;;;;;;2429895;55;20091;-76
2022/05/04 03:15:53;;;;;;;;;;;13.40;46.90;;;;;;2294851;55;20084;-76
2022/05/04 03:18:19;;;;;;;;;;;13.40;46.60;;;;;;2253441;55;20129;-76
2022/05/04 03:20:49;;;;;;;;;;;13.40;46.70;;;;;;2270542;55;20136;-75
2022/05/04 03:23:15;;;;;;;;;;;13.40;46.70;;;;;;2271447;55;20084;-75
2022/05/04 03:25:42;;;;;;;;;;;13.40;46.70;;;;;;2254599;55;20077;-76
2022/05/04 03:28:08;;;;;;;;;;;13.40;46.70;;;;;;2269238;55;20080;-76
2022/05/04 03:30:34;;;;;;;;;;;13.40;47.20;;;;;;2273950;55;20838;-75
2022/05/04 03:33:01;;;;;;;;;;;13.40;46.90;;;;;;2401493;55;20101;-76
2022/05/04 03:35:28;;;;;;;;;;;13.50;47.00;;;;;;2397027;55;20077;-75
2022/05/04 03:37:54;;;;;;;;;;;13.40;46.90;;;;;;2307784;55;20121;-76
2022/05/04 03:40:22;;;;;;;;;;;13.50;47.10;;;;;;2408463;55;20486;-75
2022/05/04 03:42:49;;;;;;;;;;;13.50;47.10;;;;;;2274896;56;20073;-75
2022/05/04 03:45:16;;;;;;;;;;;13.50;47.10;;;;;;2275003;56;20652;-75
2022/05/04 03:47:42;;;;;;;;;;;13.50;47.10;;;;;;2272416;55;20187;-76
2022/05/04 03:50:09;;;;;;;;;;;13.50;47.10;;;;;;2287735;55;20865;-75
2022/05/04 03:52:36;;;;;;;;;;;13.50;47.20;;;;;;2378330;54;20142;-75
2022/05/04 03:55:02;;;;;;;;;;;13.60;47.30;;;;;;2260068;55;20081;-76
2022/05/04 03:57:28;;;;;;;;;;;13.60;47.30;;;;;;2296774;55;20081;-76
2022/05/04 03:59:55;;;;;;;;;;;13.60;47.40;;;;;;2466732;54;20077;-75
2022/05/04 04:02:21;;;;;;;;;;;13.60;47.40;;;;;;2254599;55;20970;-75
2022/05/04 04:04:49;;;;;;;;;;;13.60;47.40;;;;;;2294716;55;20912;-76
2022/05/04 04:07:15;;;;;;;;;;;13.60;47.50;;;;;;2255855;55;20081;-74
2022/05/04 04:09:50;;;;;;;;;;;13.60;47.50;;;;;;2255620;55;20097;-74
2022/05/04 04:12:16;;;;;;;;;;;13.70;47.60;;;;;;2280072;55;20076;-74
2022/05/04 04:14:44;;;;;;;;;;;13.70;47.60;;;;;;2254375;55;20470;-73
2022/05/04 04:17:10;;;;;;;;;;;13.70;47.70;;;;;;2254312;55;20228;-74
2022/05/04 04:19:37;;;;;;;;;;;13.80;47.70;;;;;;2275752;55;20073;-74
2022/05/04 04:22:04;;;;;;;;;;;13.80;47.70;;;;;;2263594;55;20105;-74
2022/05/04 04:24:30;;;;;;;;;;;13.80;47.70;;;;;;2262846;55;20459;-74
2022/05/04 04:26:57;;;;;;;;;;;13.90;47.80;;;;;;2265113;55;20692;-73
2022/05/04 04:29:23;;;;;;;;;;;13.90;47.80;;;;;;2269622;55;20278;-74
2022/05/04 04:31:49;;;;;;;;;;;13.90;47.90;;;;;;2262459;55;20085;-74
2022/05/04 04:34:15;;;;;;;;;;;13.90;47.90;;;;;;2257375;55;20188;-74
2022/05/04 04:36:44;;;;;;;;;;;14.00;48.00;;;;;;2351368;55;20088;-74
2022/05/04 04:39:10;;;;;;;;;;;14.00;48.00;;;;;;2222381;55;21061;-73
2022/05/04 04:41:40;;;;;;;;;;;14.00;47.90;;;;;;2209028;55;20101;-75
2022/05/04 04:44:07;;;;;;;;;;;14.00;47.90;;;;;;2311680;55;20798;-74
2022/05/04 04:46:33;;;;;;;;;;;14.10;48.00;;;;;;2226614;55;20248;-73
2022/05/04 04:49:01;;;;;;;;;;;14.10;48.00;;;;;;2204451;55;20128;-74
2022/05/04 04:51:30;;;;;;;;;;;14.10;48.10;;;;;;2205772;56;20349;-74
2022/05/04 04:53:56;;;;;;;;;;;14.10;48.00;;;;;;2201856;55;20081;-74
2022/05/04 04:56:23;;;;;;;;;;;14.10;48.10;;;;;;2272784;55;20169;-74
2022/05/04 04:58:51;;;;;;;;;;;14.20;48.20;;;;;;2320695;54;20168;-74
2022/05/04 05:01:17;;;;;;;;;;;14.20;48.30;;;;;;2274992;54;20113;-74
2022/05/04 05:03:47;;;;;;;;;;;14.20;48.30;;;;;;2215153;55;20076;-74
2022/05/04 05:06:13;;;;;;;;;;;14.30;48.50;;;;;;2189638;55;20080;-74
2022/05/04 05:08:41;;;;;;;;;;;14.30;48.50;;;;;;2312524;55;20531;-74
2022/05/04 05:11:07;;;;;;;;;;;14.40;48.60;;;;;;2299390;54;20655;-73
2022/05/04 05:16:06;;;;;;;;;;;14.40;48.70;;;;;;2252604;55;20858;-74
2022/05/04 05:18:33;;;;;;;;;;;14.50;48.80;;;;;;2202094;55;20071;-73
2022/05/04 05:21:01;;;;;;;;;;;14.60;48.90;;;;;;2206579;55;20707;-73
2022/05/04 05:23:43;;;;;;;;;;;14.70;49.00;;;;;;2217600;55;20101;-74
2022/05/04 05:26:12;;;;;;;;;;;14.70;49.00;;;;;;2192718;54;20848;-74
2022/05/04 05:28:39;;;;;;;;;;;14.80;49.00;;;;;;2176245;55;20080;-74
2022/05/04 05:31:18;;;;;;;;;;;14.90;49.10;;;;;;2170188;56;20227;-73
2022/05/04 05:33:46;;;;;;;;;;;14.90;49.10;;;;;;2198667;55;20801;-73
2022/05/04 05:36:16;;;;;;;;;;;15.00;49.10;;;;;;2186287;55;20815;-74
2022/05/04 05:38:46;;;;;;;;;;;15.10;49.30;;;;;;2180169;55;20077;-74
2022/05/04 05:41:12;;;;;;;;;;;15.10;49.20;;;;;;2189571;55;20747;-75
2022/05/04 05:43:38;;;;;;;;;;;15.20;49.30;;;;;;2213214;55;20880;-74
2022/05/04 05:46:05;;;;;;;;;;;15.30;49.40;;;;;;2275304;56;20108;-74
2022/05/04 05:48:31;;;;;;;;;;;15.40;49.50;;;;;;2312566;55;20789;-74
2022/05/04 05:50:58;;;;;;;;;;;15.50;49.50;;;;;;2268811;55;20090;-74
2022/05/04 05:53:24;;;;;;;;;;;15.60;49.60;;;;;;2301264;55;20081;-74
2022/05/04 05:55:50;;;;;;;;;;;15.60;49.70;;;;;;2278836;55;20081;-74
2022/05/04 05:58:21;;;;;;;;;;;15.70;49.80;;;;;;2266252;55;20076;-75
2022/05/04 06:00:49;;;;;;;;;;;15.70;49.60;;;;;;2310809;55;20849;-74
2022/05/04 06:03:16;;;;;;;;;;;15.80;49.60;;;;;;2272460;55;20073;-74
2022/05/04 06:05:43;;;;;;;;;;;15.90;49.60;;;;;;2274764;55;20065;-74
2022/05/04 06:08:09;;;;;;;;;;;16.00;49.70;;;;;;2275000;55;20271;-74
2022/05/04 06:10:37;;;;;;;;;;;16.00;49.60;;;;;;2257952;55;20173;-74
2022/05/04 06:13:04;;;;;;;;;;;16.10;49.70;;;;;;2506061;55;20168;-77
2022/05/04 06:15:32;;;;;;;;;;;16.10;49.70;;;;;;2255751;56;20518;-77
2022/05/04 06:18:01;;;;;;;;;;;16.20;49.80;;;;;;2253386;55;20093;-76
2022/05/04 06:20:27;;;;;;;;;;;16.30;49.80;;;;;;2286364;55;20129;-76
2022/05/04 06:22:53;;;;;;;;;;;16.30;49.80;;;;;;2339604;55;20169;-77
2022/05/04 06:25:20;;;;;;;;;;;16.40;49.80;;;;;;2489737;55;20085;-77
2022/05/04 06:27:46;;;;;;;;;;;16.50;49.90;;;;;;2303623;55;20196;-74
2022/05/04 06:35:42;;;;;;;;;;;16.70;50.20;;;;;;2275077;56;20076;-76
2022/05/04 06:38:10;;;;;;;;;;;16.80;50.30;;;;;;2257684;56;20165;-76
2022/05/04 06:40:37;;;;;;;;;;;16.90;50.30;;;;;;2269212;55;20120;-76
2022/05/04 06:43:04;;;;;;;;;;;17.00;50.30;;;;;;2273337;55;20121;-74
2022/05/04 06:45:31;;;;;;;;;;;17.10;50.40;;;;;;2276794;55;20549;-74
2022/05/04 06:48:02;;;;;;;;;;;17.20;50.40;;;;;;2481070;54;20089;-74
2022/05/04 06:50:29;;;;;;;;;;;17.30;50.50;;;;;;2273281;55;20109;-74
2022/05/04 06:52:56;;;;;;;;;;;17.40;50.60;;;;;;2455712;55;20125;-75
2022/05/04 06:55:23;;;;;;;;;;;17.50;50.70;;;;;;2362405;54;20068;-74
2022/05/04 06:57:50;;;;;;;;;;;17.60;50.70;;;;;;2274761;55;20073;-75
2022/05/04 07:00:17;;;;;;;;;;;17.80;50.80;;;;;;2262557;54;20832;-74
2022/05/04 07:02:43;;;;;;;;;;;17.90;50.90;;;;;;2422288;55;20882;-74
2022/05/04 07:05:09;;;;;;;;;;;18.00;50.80;;;;;;2289181;55;20176;-74
2022/05/04 07:07:35;;;;;;;;;;;18.10;50.60;;;;;;2261645;55;20169;-74
2022/05/04 07:10:02;;;;;;;;;;;18.20;50.50;;;;;;2262351;55;20425;-75
2022/05/04 07:12:28;;;;;;;;;;;18.40;50.50;;;;;;2364730;55;20073;-74
2022/05/04 07:14:57;;;;;;;;;;;18.50;51.00;;;;;;2273837;56;20064;-74
2022/05/04 07:17:24;;;;;;;;;;;18.60;50.40;;;;;;2326242;55;20064;-75
2022/05/04 07:19:51;;;;;;;;;;;18.70;50.50;;;;;;2436588;55;20072;-74
2022/05/04 07:22:18;;;;;;;;;;;18.90;50.50;;;;;;2272619;55;20157;-74
2022/05/04 07:24:44;;;;;;;;;;;19.00;50.60;;;;;;2433419;55;20081;-75
2022/05/04 07:27:11;;;;;;;;;;;19.20;50.80;;;;;;2273723;56;20412;-74
2022/05/04 07:29:39;;;;;;;;;;;19.40;51.00;;;;;;2274309;55;20188;-74
2022/05/04 07:32:06;;;;;;;;;;;19.70;51.10;;;;;;2283659;55;20173;-74
2022/05/04 07:34:32;;;;;;;;;;;19.90;50.80;;;;;;2271384;55;20549;-74
2022/05/04 07:37:01;;;;;;;;;;;20.00;50.40;;;;;;2273714;55;20610;-74
2022/05/04 07:45:26;;;;;;;;;;;20.20;49.40;;;;;;2249090;56;20108;-74
2022/05/04 07:47:53;;;;;;;;;;;20.30;48.80;;;;;;2304412;55;20065;-74
2022/05/04 07:50:19;;;;;;;;;;;20.30;48.70;;;;;;2272588;56;20180;-74
2022/05/04 07:52:47;;;;;;;;;;;20.30;48.60;;;;;;2383585;55;21019;-75
2022/05/04 07:55:13;;;;;;;;;;;20.30;48.70;;;;;;2292033;55;20419;-74
2022/05/04 07:57:39;;;;;;;;;;;20.40;48.80;;;;;;2267664;56;20412;-75
2022/05/04 08:05:42;;;;;;;;;;;20.50;48.70;;;;;;2264686;55;20416;-74
2022/05/04 08:08:09;;;;;;;;;;;20.50;48.80;;;;;;2266136;56;20168;-75
2022/05/04 08:10:35;;;;;;;;;;;20.60;48.90;;;;;;2264679;56;20789;-75
2022/05/04 08:13:01;;;;;;;;;;;20.70;49.40;;;;;;2265290;55;20416;-77
2022/05/04 08:15:29;;;;;;;;;;;20.70;48.70;;;;;;2266625;55;20092;-74
2022/05/04 08:17:58;;;;;;;;;;;20.80;48.70;;;;;;2395880;54;20160;-74
2022/05/04 08:20:26;;;;;;;;;;;20.90;48.70;;;;;;2253419;55;21054;-75
2022/05/04 08:22:52;;;;;;;;;;;21.00;48.70;;;;;;2265485;55;20077;-75
2022/05/04 08:25:18;;;;;;;;;;;21.10;48.90;;;;;;2262163;55;20548;-76
2022/05/04 08:27:47;;;;;;;;;;;21.20;49.00;;;;;;2331199;54;20535;-74
2022/05/04 08:30:14;;;;;;;;;;;21.30;49.10;;;;;;2486803;55;20136;-76
2022/05/04 08:32:46;;;;;;;;;;;21.50;49.30;;;;;;2327897;55;20092;-76
2022/05/04 08:35:14;;;;;;;;;;;21.70;49.50;;;;;;2263012;55;20254;-76
2022/05/04 08:37:41;;;;;;;;;;;22.00;49.80;;;;;;2253419;55;20762;-76
2022/05/04 08:40:08;;;;;;;;;;;22.30;49.90;;;;;;2254260;55;20270;-77
2022/05/04 08:42:38;;;;;;;;;;;22.50;49.10;;;;;;2262103;55;20065;-76
2022/05/04 08:45:04;;;;;;;;;;;22.70;49.00;;;;;;2283487;55;20484;-77
2022/05/04 08:47:32;;;;;;;;;;;22.80;48.90;;;;;;2266717;55;20173;-76
2022/05/04 08:49:58;;;;;;;;;;;22.90;48.60;;;;;;2281512;54;20065;-76
2022/05/04 08:52:26;;;;;;;;;;;23.00;48.30;;;;;;2261041;56;20096;-76
2022/05/04 08:54:52;;;;;;;;;;;23.10;48.40;;;;;;2257880;56;20798;-77
2022/05/04 08:57:19;;;;;;;;;;;23.20;48.30;;;;;;2356627;55;20692;-76
2022/05/04 08:59:45;;;;;;;;;;;23.30;48.10;;;;;;2361632;55;20136;-77
2022/05/04 09:02:11;;;;;;;;;;;23.40;47.80;;;;;;2256359;55;20101;-76
2022/05/04 09:04:41;;;;;;;;;;;23.50;47.40;;;;;;2257665;56;20172;-76
2022/05/04 09:07:22;;;;;;;;;;;23.60;47.20;;;;;;2261010;56;20061;-77
2022/05/04 09:09:50;;;;;;;;;;;23.60;47.30;;;;;;2405058;54;20132;-76
2022/05/04 09:12:17;;;;;;;;;;;23.70;47.30;;;;;;2255746;56;20065;-76
2022/05/04 09:14:43;;;;;;;;;;;23.80;47.20;;;;;;2257629;55;20747;-75
2022/05/04 09:17:10;;;;;;;;;;;23.80;46.80;;;;;;2277506;55;20084;-77
2022/05/04 09:19:40;;;;;;;;;;;23.80;46.70;;;;;;2241589;55;20073;-76
2022/05/04 09:22:16;;;;;;;;;;;23.90;47.00;;;;;;2254743;55;20073;-76
2022/05/04 09:24:44;;;;;;;;;;;24.00;47.30;;;;;;2264050;55;20192;-76
2022/05/04 09:27:10;;;;;;;;;;;24.10;47.50;;;;;;2241668;55;20080;-76
2022/05/04 09:29:36;;;;;;;;;;;24.30;47.40;;;;;;2269108;55;21044;-76
2022/05/04 09:32:14;;;;;;;;;;;24.40;47.30;;;;;;2245232;55;20822;-76
2022/05/04 09:34:44;;;;;;;;;;;24.50;47.30;;;;;;2262440;56;20231;-76
2022/05/04 09:45:55;;;;;;;;;;;24.80;46.40;;;;;;2264591;56;20644;-74
2022/05/04 09:48:29;;;;;;;;;;;24.90;46.10;;;;;;2269420;55;20837;-76
2022/05/04 09:51:07;;;;;;;;;;;24.80;45.90;;;;;;2489728;55;20820;-76
2022/05/04 09:53:34;;;;;;;;;;;24.80;45.90;;;;;;2261782;55;20220;-75
2022/05/04 09:56:01;;;;;;;;;;;24.90;46.10;;;;;;2260677;55;20081;-75
2022/05/04 09:58:29;;;;;;;;;;;24.90;46.20;;;;;;2419202;55;20081;-76
2022/05/04 10:00:55;;;;;;;;;;;25.00;46.30;;;;;;2258711;55;20081;-76
2022/05/04 10:03:22;;;;;;;;;;;25.00;46.20;;;;;;2262528;55;20077;-76
2022/05/04 10:05:50;;;;;;;;;;;25.10;46.20;;;;;;2249565;55;20853;-76
2022/05/04 10:08:19;;;;;;;;;;;25.20;46.20;;;;;;2255037;55;20069;-76
2022/05/04 10:10:46;;;;;;;;;;;25.20;46.10;;;;;;2264691;55;20792;-76
2022/05/04 10:13:12;;;;;;;;;;;25.30;46.10;;;;;;2328030;54;20177;-76
2022/05/04 10:15:39;;;;;;;;;;;25.40;46.10;;;;;;2302171;55;20085;-77
2022/05/04 10:18:06;;;;;;;;;;;25.50;46.10;;;;;;2254663;56;20077;-77
2022/05/04 10:20:34;;;;;;;;;;;25.60;46.00;;;;;;2255266;56;21118;-76
2022/05/04 10:23:12;;;;;;;;;;;25.70;46.00;;;;;;2260077;56;20181;-75
2022/05/04 10:25:38;;;;;;;;;;;25.70;45.70;;;;;;2257180;55;20231;-75
2022/05/04 10:28:06;;;;;;;;;;;25.80;45.70;;;;;;2267311;56;20069;-76
2022/05/04 10:30:33;;;;;;;;;;;25.80;45.50;;;;;;2269973;55;20257;-75
2022/05/04 10:33:02;;;;;;;;;;;25.90;45.30;;;;;;2269023;55;20224;-75
2022/05/04 10:35:46;;;;;;;;;;;26.00;45.00;;;;;;2261462;55;20073;-75
2022/05/04 10:38:27;;;;;;;;;;;26.00;44.90;;;;;;2262813;56;21053;-76
2022/05/04 10:40:55;;;;;;;;;;;26.00;44.80;;;;;;2263759;56;20080;-76
2022/05/04 10:43:42;;;;;;;;;;;26.10;44.90;;;;;;2261969;56;20176;-75
2022/05/04 10:46:12;;;;;;;;;;;26.10;45.00;;;;;;2267308;56;20076;-75
2022/05/04 10:48:42;;;;;;;;;;;26.20;44.90;;;;;;2276591;55;1326582;-76
2022/05/04 10:51:21;;;;;;;;;;;26.30;44.80;;;;;;2321082;55;20125;-76
2022/05/04 10:53:51;;;;;;;;;;;26.30;44.70;;;;;;2375449;55;20124;-77
2022/05/04 10:56:18;;;;;;;;;;;26.40;44.80;;;;;;2262579;55;20086;-76
2022/05/04 10:58:55;;;;;;;;;;;26.50;44.70;;;;;;2254360;55;20160;-76
2022/05/04 11:01:30;;;;;;;;;;;26.50;44.30;;;;;;2269631;56;20180;-76
2022/05/04 11:04:58;;;;;;;;;;;26.60;44.00;;;;;;2313503;55;20515;-76
2022/05/04 11:07:28;;;;;;;;;;;26.60;44.00;;;;;;2391852;55;20296;-76
2022/05/04 11:09:59;;;;;;;;;;;26.70;44.00;;;;;;2287354;54;20208;-76
2022/05/04 11:12:25;;;;;;;;;;;26.70;43.80;;;;;;2367322;55;20072;-75
2022/05/04 11:14:51;;;;;;;;;;;26.80;43.80;;;;;;2269670;55;20497;-77
2022/05/04 11:17:18;;;;;;;;;;;26.80;43.70;;;;;;2321438;55;20188;-77
2022/05/04 11:19:47;;;;;;;;;;;26.90;43.60;;;;;;2269917;55;20068;-77
2022/05/04 11:22:14;;;;;;;;;;;26.90;43.70;;;;;;2259272;54;20120;-75
2022/05/04 11:24:49;;;;;;;;;;;27.00;43.60;;;;;;2270117;55;20125;-76
2022/05/04 11:27:18;;;;;;;;;;;27.00;43.40;;;;;;2427820;55;20925;-78
2022/05/04 11:32:55;;;;;;;;;;;27.10;42.90;;;;;;2270002;55;20117;-76
2022/05/04 11:35:24;;;;;;;;;;;27.10;43.00;;;;;;2334353;54;20121;-76
2022/05/04 11:37:51;;;;;;;;;;;27.00;42.60;;;;;;2266082;55;20084;-76
2022/05/04 11:40:19;;;;;;;;;;;27.10;42.60;;;;;;2297982;54;20128;-76
2022/05/04 11:42:45;;;;;;;;;;;27.10;42.60;;;;;;2271737;55;20184;-77
2022/05/04 11:45:13;;;;;;;;;;;27.10;42.80;;;;;;2263331;55;20070;-77
2022/05/04 11:47:40;;;;;;;;;;;27.20;42.70;;;;;;2315088;54;20077;-75
2022/05/04 11:50:08;;;;;;;;;;;27.20;42.60;;;;;;2262493;55;20912;-76
2022/05/04 11:52:35;;;;;;;;;;;27.20;42.40;;;;;;2312739;54;20171;-76
2022/05/04 11:55:01;;;;;;;;;;;27.30;42.30;;;;;;2268993;55;20219;-75
2022/05/04 11:57:31;;;;;;;;;;;27.30;42.40;;;;;;2275186;55;20835;-76
2022/05/04 11:59:57;;;;;;;;;;;27.30;42.30;;;;;;2291935;55;20065;-76
2022/05/04 12:02:24;;;;;;;;;;;27.40;42.40;;;;;;2267864;55;20829;-74
2022/05/04 12:04:50;;;;;;;;;;;27.40;42.50;;;;;;2250416;56;20088;-72
2022/05/04 12:07:17;;;;;;;;;;;27.50;42.50;;;;;;2275821;55;20076;-77
2022/05/04 12:09:43;;;;;;;;;;;27.50;42.30;;;;;;2283968;55;20871;-72
2022/05/04 12:12:11;;;;;;;;;;;27.50;42.30;;;;;;2285202;55;20077;-74
2022/05/04 12:14:37;;;;;;;;;;;27.70;42.40;;;;;;2290165;55;20079;-73
2022/05/04 12:17:04;;;;;;;;;;;27.70;42.30;;;;;;2272614;56;20349;-72
2022/05/04 12:19:31;;;;;;;;;;;27.80;42.10;;;;;;2350685;55;20528;-71
2022/05/04 12:21:57;;;;;;;;;;;27.90;42.00;;;;;;2266110;55;20061;-73
2022/05/04 12:24:24;;;;;;;;;;;27.90;42.00;;;;;;2267763;54;20133;-73
2022/05/04 12:26:55;;;;;;;;;;;27.90;42.00;;;;;;2266741;54;20121;-72
2022/05/04 12:34:52;;;;;;;;;;;28.10;41.10;;;;;;2265932;56;20077;-72
2022/05/04 12:37:20;;;;;;;;;;;28.10;40.90;;;;;;2267880;56;20538;-72
2022/05/04 12:39:48;;;;;;;;;;;28.20;40.80;;;;;;2437655;54;20555;-75
2022/05/04 12:42:14;;;;;;;;;;;28.10;40.30;;;;;;2280860;55;20801;-75
2022/05/04 12:44:47;;;;;;;;;;;28.10;40.10;;;;;;2271283;56;20916;-74
2022/05/04 12:47:13;;;;;;;;;;;28.00;40.00;;;;;;2264186;55;20568;-74
2022/05/04 12:49:40;;;;;;;;;;;27.90;39.80;;;;;;2270365;56;20068;-76
2022/05/04 12:52:06;;;;;;;;;;;27.80;40.00;;;;;;2272917;55;20109;-74
2022/05/04 12:54:33;;;;;;;;;;;27.70;39.90;;;;;;2266177;55;20785;-75
2022/05/04 12:57:00;;;;;;;;;;;27.60;39.90;;;;;;2264905;55;20092;-75
2022/05/04 12:59:27;;;;;;;;;;;27.50;40.00;;;;;;2354101;54;20513;-77
2022/05/04 13:01:54;;;;;;;;;;;27.40;39.70;;;;;;2280182;55;20136;-77
2022/05/04 13:04:20;;;;;;;;;;;27.20;39.50;;;;;;2261997;55;20902;-74
2022/05/04 13:06:47;;;;;;;;;;;27.10;39.40;;;;;;2274726;54;20085;-75
2022/05/04 13:09:13;;;;;;;;;;;26.90;39.30;;;;;;2256393;55;20144;-74
2022/05/04 13:11:39;;;;;;;;;;;26.70;39.40;;;;;;2316108;55;20631;-76
2022/05/04 13:14:06;;;;;;;;;;;26.50;39.30;;;;;;2294879;54;20260;-78
2022/05/04 13:16:32;;;;;;;;;;;26.30;39.30;;;;;;2268190;56;20155;-74
2022/05/04 13:19:00;;;;;;;;;;;26.20;39.40;;;;;;2269487;56;20763;-74
2022/05/04 13:21:29;;;;;;;;;;;26.00;39.40;;;;;;2270174;55;20556;-74
2022/05/04 13:23:59;;;;;;;;;;;25.80;39.30;;;;;;2270460;55;20136;-74
2022/05/04 13:26:26;;;;;;;;;;;25.70;39.40;;;;;;2250857;55;20197;-74
2022/05/04 13:28:53;;;;;;;;;;;25.60;39.50;;;;;;2265777;55;20179;-76
2022/05/04 13:31:19;;;;;;;;;;;25.50;39.60;;;;;;2295436;55;20081;-74
2022/05/04 13:33:47;;;;;;;;;;;25.30;39.60;;;;;;2285427;54;20085;-76
2022/05/04 13:36:13;;;;;;;;;;;25.20;39.70;;;;;;2271815;55;20072;-74
2022/05/04 13:38:42;;;;;;;;;;;25.10;39.80;;;;;;2294780;55;20945;-76
2022/05/04 13:41:09;;;;;;;;;;;25.00;40.00;;;;;;2270614;55;20211;-74
2022/05/04 13:43:35;;;;;;;;;;;25.00;40.10;;;;;;2266468;55;20072;-73
2022/05/04 13:46:02;;;;;;;;;;;24.90;40.20;;;;;;2273408;55;20145;-76
2022/05/04 13:48:28;;;;;;;;;;;24.80;40.10;;;;;;2258517;55;20848;-76
2022/05/04 13:53:42;;;;;;;;;;;24.70;40.20;;;;;;2246645;55;20065;-76
2022/05/04 13:56:09;;;;;;;;;;;24.60;40.10;;;;;;2433952;54;20181;-75
2022/05/04 13:58:35;;;;;;;;;;;24.60;40.00;;;;;;2323843;54;20115;-76
2022/05/04 14:01:01;;;;;;;;;;;24.60;40.00;;;;;;2342054;55;20069;-75
2022/05/04 14:03:28;;;;;;;;;;;24.60;40.10;;;;;;2273343;55;20081;-75
2022/05/04 14:05:55;;;;;;;;;;;24.50;40.10;;;;;;2288734;55;20424;-75
2022/05/04 14:08:21;;;;;;;;;;;24.50;40.10;;;;;;2295395;55;20498;-75
2022/05/04 14:10:49;;;;;;;;;;;24.50;40.00;;;;;;2313071;55;20089;-75
2022/05/04 14:13:17;;;;;;;;;;;24.50;40.10;;;;;;2266559;55;20096;-75
2022/05/04 14:15:43;;;;;;;;;;;24.50;40.00;;;;;;2269789;55;20472;-76
2022/05/04 14:18:10;;;;;;;;;;;24.50;39.70;;;;;;2281292;55;20092;-76
2022/05/04 14:20:36;;;;;;;;;;;24.50;39.40;;;;;;2269357;56;20132;-74
2022/05/04 14:23:02;;;;;;;;;;;24.50;39.50;;;;;;2307064;55;20117;-75
2022/05/04 14:25:29;;;;;;;;;;;24.50;39.60;;;;;;2252842;55;20314;-77
2022/05/04 14:27:56;;;;;;;;;;;24.50;39.70;;;;;;2269889;56;20080;-76
2022/05/04 14:30:23;;;;;;;;;;;24.50;39.70;;;;;;2287822;55;20555;-75
2022/05/04 14:32:49;;;;;;;;;;;24.60;39.80;;;;;;2267712;55;20081;-75
2022/05/04 14:35:15;;;;;;;;;;;24.60;40.10;;;;;;2270145;55;20752;-75
2022/05/04 14:37:42;;;;;;;;;;;24.80;40.30;;;;;;2326622;54;20069;-76
2022/05/04 14:40:09;;;;;;;;;;;24.80;40.40;;;;;;2287660;55;20873;-75
2022/05/04 14:42:35;;;;;;;;;;;24.80;40.10;;;;;;2279091;55;20134;-75
2022/05/04 14:45:01;;;;;;;;;;;24.90;40.30;;;;;;2267930;56;20105;-76
2022/05/04 14:47:28;;;;;;;;;;;25.00;40.40;;;;;;2272942;56;20499;-76
2022/05/04 14:49:54;;;;;;;;;;;25.20;40.40;;;;;;2278974;55;20508;-75
2022/05/04 14:52:20;;;;;;;;;;;25.40;40.60;;;;;;2271917;55;20096;-77
2022/05/04 14:54:47;;;;;;;;;;;25.60;40.30;;;;;;2280225;54;20381;-75
2022/05/04 14:57:15;;;;;;;;;;;25.70;40.30;;;;;;2280604;55;20926;-76
2022/05/04 14:59:45;;;;;;;;;;;25.90;40.10;;;;;;2274090;56;20803;-75
2022/05/04 15:02:11;;;;;;;;;;;26.00;39.80;;;;;;2495656;55;20089;-77
2022/05/04 15:07:23;;;;;;;;;;;26.20;38.90;;;;;;2270373;55;20720;-75
2022/05/04 15:09:51;;;;;;;;;;;26.20;38.60;;;;;;2290200;55;20116;-76